Aérodrome :
LOGIN :

S'inscrire | Disclaimer

   EN    FR    IT 

 










Légende :    VFR   VFR Marginal   IFR   IFR Intensif   IFR Très Intensif
Visi : 
Plafond : 
>= 8 km
>= 3000ft
5 à 8 km
1000 à 3000 ft
1500m à 5 km
500 à 1000 ft
800 à 1500m
200 à 500 ft
< 800m
< 200 ft
Symboles :   Orages  Brouillard  Fortes neiges  Fortes précipitations  Vent > 20 kt
SIGMETs :   Divers  Orages  Givrage  Turbulence  Onde Orograph.  Cendres Volcan.






- Altitude de l'aérodrome : 1115 ft
- Code IATA : GRZ


LOWG - Graz

DERNIER METAR :
  • 291820Z AUTO 26003KT 210V300 9999 NSC 04/M06 Q1011 R17/29//95 NOSIG

METARs EXPIRÉS :
  • 291750Z 29003KT 250V350 9999 FEW060 SCT220 03/M06 Q1011 R17/29//95 NOSIG
  • 291720Z 20003KT 170V230 9999 FEW060 SCT220 01/M05 Q1010 R17/29//95 NOSIG
  • 291650Z VRB02KT 9999 FEW060 SCT220 04/M06 Q1010 R17/29//95 NOSIG
  • 291620Z 18004KT 150V210 9999 FEW060 SCT280 05/M06 Q1010 R17/29//95 NOSIG
  • 291550Z 34003KT 300V360 9999 FEW060 SCT180 BKN280 07/M07 Q1009 R17/29//95 NOSIG
  • 291520Z 28007KT 240V340 9999 FEW060 SCT180 BKN280 08/M07 Q1009 R17/29//95 NOSIG

TAF TAF LOWG
Valide du 29 à 18h jusqu'au 30 à 18h UTC


291715Z 2918/3018 34004KT 9999 FEW050 SCT180 TX07/3014Z TNM08/3006Z
TEMPO 2923/3008 VRB02KT 0500 FZBCFG
TEMPO 3011/3016 19007KT



MET'MAP, la Météo Aéronautique d'un coup d'oeil ! - Copyright ORBIFLY Décembre 2007 - Disclaimer

ORBIFLY MET'MAP TEAM :

Programmation & Développement : Alexandra Zaïnal
Sur une idée originale de : Baudouin d'Aumeries
Assistance à la programmation : Marc-Olivier Méhu
Soutien technique & logistique : Manuel Goepfert

Contact : metmap@orbifly.com




SOURCES & CREDITS :

   NOAA